Florence, Wisconsin
Current Conditions -  °F | °C
As of 1:54 PM on Thursday 25 Dec 2014 (Local Time) from KIMT Reporting Station
Overcast Overcast  
Wind Chill: -3°   Ceiling: 1600
Heat Index:   Visibility: 10mi
Dew Point: -2°   Wind: 9mph
Humidity: 82%   Direction: 220°SW
Pressure: 29.75"   Gusts: NA
Location:  45.92°N, 88.25°W
Report Text: KIMT 251954Z AUTO 22008KT 10SM BKN016 OVC055 01/M02 A2975 RMK AO2 SLP088 T00111017
Loading
Personal Weather Stations






























Interactive Weather Map New forecast layout! Learn more

10-Day Weather Forecast

Advertisements
Track Severe Weather on mobile